sensor_id;sensor_type;location;lat;lon;timestamp;noise_LAeq;noise_LA_min;noise_LA_max;noise_LA01;noise_LA95
69611;Laerm;56817;52.302;4.844;2022-09-09T00:00:13;36.16;34.50;38.46;;
69611;Laerm;56817;52.302;4.844;2022-09-09T00:00:25;36.28;34.65;37.92;;
69611;Laerm;56817;52.302;4.844;2022-09-09T00:00:35;35.81;33.73;37.91;;
69611;Laerm;56817;52.302;4.844;2022-09-09T00:00:49;35.42;33.21;37.08;;
69611;Laerm;56817;52.302;4.844;2022-09-09T00:01:23;35.90;33.64;38.02;;
69611;Laerm;56817;52.302;4.844;2022-09-09T00:02:20;36.66;33.82;39.14;;
69611;Laerm;56817;52.302;4.844;2022-09-09T00:02:30;37.27;35.04;39.87;;
69611;Laerm;56817;52.302;4.844;2022-09-09T00:02:42;37.40;35.35;39.47;;
69611;Laerm;56817;52.302;4.844;2022-09-09T00:03:01;49.05;36.38;55.90;;
69611;Laerm;56817;52.302;4.844;2022-09-09T00:03:23;48.48;39.96;56.77;;
69611;Laerm;56817;52.302;4.844;2022-09-09T00:03:46;38.62;35.54;42.27;;
69611;Laerm;56817;52.302;4.844;2022-09-09T00:03:58;37.29;35.21;40.71;;
69611;Laerm;56817;52.302;4.844;2022-09-09T00:04:12;37.41;34.84;41.62;;
69611;Laerm;56817;52.302;4.844;2022-09-09T00:04:34;37.03;34.48;40.73;;
69611;Laerm;56817;52.302;4.844;2022-09-09T00:04:48;37.90;35.41;41.30;;
69611;Laerm;56817;52.302;4.844;2022-09-09T00:05:17;37.10;34.64;39.86;;
69611;Laerm;56817;52.302;4.844;2022-09-09T00:05:38;36.83;34.31;40.33;;
69611;Laerm;56817;52.302;4.844;2022-09-09T00:06:43;35.57;33.16;38.88;;
69611;Laerm;56817;52.302;4.844;2022-09-09T00:07:07;36.72;34.45;41.61;;
69611;Laerm;56817;52.302;4.844;2022-09-09T00:07:35;35.39;33.23;39.15;;
69611;Laerm;56817;52.302;4.844;2022-09-09T00:07:49;38.49;33.87;45.71;;
69611;Laerm;56817;52.302;4.844;2022-09-09T00:08:01;42.63;34.90;48.59;;
69611;Laerm;56817;52.302;4.844;2022-09-09T00:08:20;38.82;35.77;42.20;;
69611;Laerm;56817;52.302;4.844;2022-09-09T00:08:42;36.29;34.14;39.52;;
69611;Laerm;56817;52.302;4.844;2022-09-09T00:08:58;37.40;35.62;40.84;;
69611;Laerm;56817;52.302;4.844;2022-09-09T00:09:17;37.17;34.44;40.46;;
69611;Laerm;56817;52.302;4.844;2022-09-09T00:09:28;36.37;34.26;39.36;;
69611;Laerm;56817;52.302;4.844;2022-09-09T00:10:13;36.25;34.18;41.37;;
69611;Laerm;56817;52.302;4.844;2022-09-09T00:10:28;34.88;32.87;37.01;;
69611;Laerm;56817;52.302;4.844;2022-09-09T00:10:39;35.97;33.83;39.43;;
69611;Laerm;56817;52.302;4.844;2022-09-09T00:10:54;38.13;34.64;45.85;;
69611;Laerm;56817;52.302;4.844;2022-09-09T00:11:08;35.70;33.69;37.47;;
69611;Laerm;56817;52.302;4.844;2022-09-09T00:11:27;35.68;33.00;38.06;;
69611;Laerm;56817;52.302;4.844;2022-09-09T00:11:40;37.00;33.60;42.62;;
69611;Laerm;56817;52.302;4.844;2022-09-09T00:12:02;35.23;33.62;36.72;;
69611;Laerm;56817;52.302;4.844;2022-09-09T00:12:15;34.86;32.88;36.57;;
69611;Laerm;56817;52.302;4.844;2022-09-09T00:12:36;35.40;33.13;38.37;;
69611;Laerm;56817;52.302;4.844;2022-09-09T00:14:00;36.97;33.11;41.75;;
69611;Laerm;56817;52.302;4.844;2022-09-09T00:14:03;35.86;33.49;39.53;;
69611;Laerm;56817;52.302;4.844;2022-09-09T00:14:47;35.14;32.94;37.38;;
69611;Laerm;56817;52.302;4.844;2022-09-09T00:15:21;35.42;33.09;37.68;;
69611;Laerm;56817;52.302;4.844;2022-09-09T00:15:40;36.06;33.91;38.12;;
69611;Laerm;56817;52.302;4.844;2022-09-09T00:16:24;35.79;33.75;39.06;;
69611;Laerm;56817;52.302;4.844;2022-09-09T00:16:35;34.97;33.14;36.18;;
69611;Laerm;56817;52.302;4.844;2022-09-09T00:16:53;35.15;33.23;37.80;;
69611;Laerm;56817;52.302;4.844;2022-09-09T00:17:09;35.36;33.05;37.48;;
69611;Laerm;56817;52.302;4.844;2022-09-09T00:17:34;34.66;32.81;36.80;;
69611;Laerm;56817;52.302;4.844;2022-09-09T00:18:09;33.94;32.21;35.76;;
69611;Laerm;56817;52.302;4.844;2022-09-09T00:18:25;34.97;32.33;43.17;;
69611;Laerm;56817;52.302;4.844;2022-09-09T00:19:00;34.39;32.41;37.55;;
69611;Laerm;56817;52.302;4.844;2022-09-09T00:19:20;35.75;33.06;38.17;;
69611;Laerm;56817;52.302;4.844;2022-09-09T00:19:38;38.71;35.40;44.73;;
69611;Laerm;56817;52.302;4.844;2022-09-09T00:20:10;36.18;33.89;39.89;;
69611;Laerm;56817;52.302;4.844;2022-09-09T00:20:28;36.22;34.08;39.40;;
69611;Laerm;56817;52.302;4.844;2022-09-09T00:21:04;36.35;34.11;38.46;;
69611;Laerm;56817;52.302;4.844;2022-09-09T00:21:16;36.66;34.36;39.27;;
69611;Laerm;56817;52.302;4.844;2022-09-09T00:21:36;37.10;34.98;39.43;;
69611;Laerm;56817;52.302;4.844;2022-09-09T00:22:00;36.45;33.81;39.57;;
69611;Laerm;56817;52.302;4.844;2022-09-09T00:22:19;35.51;33.29;37.68;;
69611;Laerm;56817;52.302;4.844;2022-09-09T00:22:30;35.59;33.92;37.24;;
69611;Laerm;56817;52.302;4.844;2022-09-09T00:22:44;35.16;33.11;37.89;;
69611;Laerm;56817;52.302;4.844;2022-09-09T00:23:03;35.45;33.52;37.33;;
69611;Laerm;56817;52.302;4.844;2022-09-09T00:23:29;35.30;33.29;37.85;;
69611;Laerm;56817;52.302;4.844;2022-09-09T00:23:43;35.31;33.73;37.11;;
69611;Laerm;56817;52.302;4.844;2022-09-09T00:23:54;34.94;33.36;36.59;;
69611;Laerm;56817;52.302;4.844;2022-09-09T00:24:23;34.84;33.34;36.59;;
69611;Laerm;56817;52.302;4.844;2022-09-09T00:24:46;33.37;31.55;35.54;;
69611;Laerm;56817;52.302;4.844;2022-09-09T00:25:02;33.39;31.72;34.95;;
69611;Laerm;56817;52.302;4.844;2022-09-09T00:26:14;35.41;33.25;38.38;;
69611;Laerm;56817;52.302;4.844;2022-09-09T00:26:34;35.25;33.25;37.08;;
69611;Laerm;56817;52.302;4.844;2022-09-09T00:26:47;35.49;33.21;37.70;;
69611;Laerm;56817;52.302;4.844;2022-09-09T00:27:04;35.43;32.81;37.71;;
69611;Laerm;56817;52.302;4.844;2022-09-09T00:27:31;48.40;34.55;57.65;;
69611;Laerm;56817;52.302;4.844;2022-09-09T00:27:48;35.07;33.14;37.36;;
69611;Laerm;56817;52.302;4.844;2022-09-09T00:28:00;34.99;33.22;37.19;;
69611;Laerm;56817;52.302;4.844;2022-09-09T00:28:13;34.41;32.16;37.64;;
69611;Laerm;56817;52.302;4.844;2022-09-09T00:28:27;33.89;31.98;37.49;;
69611;Laerm;56817;52.302;4.844;2022-09-09T00:29:03;33.98;32.26;35.67;;
69611;Laerm;56817;52.302;4.844;2022-09-09T00:29:21;33.68;31.69;36.51;;
69611;Laerm;56817;52.302;4.844;2022-09-09T00:29:52;33.65;31.92;35.58;;
69611;Laerm;56817;52.302;4.844;2022-09-09T00:30:14;33.61;31.71;35.62;;
69611;Laerm;56817;52.302;4.844;2022-09-09T00:30:31;34.65;32.34;38.27;;
69611;Laerm;56817;52.302;4.844;2022-09-09T00:30:41;34.32;32.58;36.29;;
69611;Laerm;56817;52.302;4.844;2022-09-09T00:30:52;34.52;32.38;36.06;;
69611;Laerm;56817;52.302;4.844;2022-09-09T00:31:11;34.22;32.43;37.55;;
69611;Laerm;56817;52.302;4.844;2022-09-09T00:31:23;33.88;32.16;35.91;;
69611;Laerm;56817;52.302;4.844;2022-09-09T00:31:35;34.20;32.55;35.76;;
69611;Laerm;56817;52.302;4.844;2022-09-09T00:31:47;33.57;31.69;35.93;;
69611;Laerm;56817;52.302;4.844;2022-09-09T00:31:57;34.33;32.03;39.92;;
69611;Laerm;56817;52.302;4.844;2022-09-09T00:32:16;35.20;33.03;38.52;;
69611;Laerm;56817;52.302;4.844;2022-09-09T00:32:28;37.17;32.74;43.74;;
69611;Laerm;56817;52.302;4.844;2022-09-09T00:32:39;33.47;31.25;35.81;;
69611;Laerm;56817;52.302;4.844;2022-09-09T00:32:54;34.27;32.17;35.91;;
69611;Laerm;56817;52.302;4.844;2022-09-09T00:33:13;34.24;32.54;37.30;;
69611;Laerm;56817;52.302;4.844;2022-09-09T00:33:25;33.94;31.99;35.52;;
69611;Laerm;56817;52.302;4.844;2022-09-09T00:33:36;33.76;31.90;36.34;;
69611;Laerm;56817;52.302;4.844;2022-09-09T00:33:48;34.30;32.71;37.18;;
69611;Laerm;56817;52.302;4.844;2022-09-09T00:34:03;34.62;32.71;37.62;;
69611;Laerm;56817;52.302;4.844;2022-09-09T00:34:18;34.65;32.67;37.47;;
69611;Laerm;56817;52.302;4.844;2022-09-09T00:34:30;33.73;31.29;36.17;;
69611;Laerm;56817;52.302;4.844;2022-09-09T00:34:47;33.45;31.73;35.13;;
69611;Laerm;56817;52.302;4.844;2022-09-09T00:35:00;35.20;31.78;40.02;;
69611;Laerm;56817;52.302;4.844;2022-09-09T00:35:16;36.36;32.68;41.00;;
69611;Laerm;56817;52.302;4.844;2022-09-09T00:35:32;35.61;33.60;37.49;;
69611;Laerm;56817;52.302;4.844;2022-09-09T00:35:45;34.94;32.52;37.15;;
69611;Laerm;56817;52.302;4.844;2022-09-09T00:35:57;38.66;33.50;50.63;;
69611;Laerm;56817;52.302;4.844;2022-09-09T00:36:15;36.93;33.55;44.70;;
69611;Laerm;56817;52.302;4.844;2022-09-09T00:36:27;35.15;32.92;37.64;;
69611;Laerm;56817;52.302;4.844;2022-09-09T00:36:39;34.86;32.39;37.20;;
69611;Laerm;56817;52.302;4.844;2022-09-09T00:36:50;37.22;33.70;41.69;;
69611;Laerm;56817;52.302;4.844;2022-09-09T00:37:02;35.33;32.51;37.71;;
69611;Laerm;56817;52.302;4.844;2022-09-09T00:37:13;35.72;33.94;37.79;;
69611;Laerm;56817;52.302;4.844;2022-09-09T00:37:24;34.78;33.15;36.56;;
69611;Laerm;56817;52.302;4.844;2022-09-09T00:37:35;34.62;32.85;36.83;;
69611;Laerm;56817;52.302;4.844;2022-09-09T00:37:48;34.92;32.60;37.12;;
69611;Laerm;56817;52.302;4.844;2022-09-09T00:38:02;34.75;32.81;38.19;;
69611;Laerm;56817;52.302;4.844;2022-09-09T00:38:33;35.22;33.75;37.70;;
69611;Laerm;56817;52.302;4.844;2022-09-09T00:38:52;35.19;33.22;38.52;;
69611;Laerm;56817;52.302;4.844;2022-09-09T00:39:05;34.55;32.68;36.15;;
69611;Laerm;56817;52.302;4.844;2022-09-09T00:39:37;34.02;32.26;36.38;;
69611;Laerm;56817;52.302;4.844;2022-09-09T00:39:48;34.13;31.81;37.17;;
69611;Laerm;56817;52.302;4.844;2022-09-09T00:40:00;33.61;31.62;35.60;;
69611;Laerm;56817;52.302;4.844;2022-09-09T00:40:22;33.78;32.22;36.09;;
69611;Laerm;56817;52.302;4.844;2022-09-09T00:40:34;33.15;31.27;34.83;;
69611;Laerm;56817;52.302;4.844;2022-09-09T00:40:48;32.98;31.43;35.02;;
69611;Laerm;56817;52.302;4.844;2022-09-09T00:41:04;33.47;31.46;35.49;;
69611;Laerm;56817;52.302;4.844;2022-09-09T00:42:03;33.96;31.78;35.85;;
69611;Laerm;56817;52.302;4.844;2022-09-09T00:42:23;34.36;32.36;37.17;;
69611;Laerm;56817;52.302;4.844;2022-09-09T00:42:36;34.30;32.14;39.73;;
69611;Laerm;56817;52.302;4.844;2022-09-09T00:42:52;35.08;32.16;39.20;;
69611;Laerm;56817;52.302;4.844;2022-09-09T00:43:36;35.69;33.59;38.71;;
69611;Laerm;56817;52.302;4.844;2022-09-09T00:43:50;35.23;33.13;37.05;;
69611;Laerm;56817;52.302;4.844;2022-09-09T00:44:03;34.76;32.72;37.24;;
69611;Laerm;56817;52.302;4.844;2022-09-09T00:44:39;35.27;33.41;38.26;;
69611;Laerm;56817;52.302;4.844;2022-09-09T00:44:59;34.69;32.26;37.30;;
69611;Laerm;56817;52.302;4.844;2022-09-09T00:45:41;35.43;33.43;37.44;;
69611;Laerm;56817;52.302;4.844;2022-09-09T00:47:55;38.57;32.83;57.59;;
69611;Laerm;56817;52.302;4.844;2022-09-09T00:48:09;34.82;32.58;37.29;;
69611;Laerm;56817;52.302;4.844;2022-09-09T00:48:20;35.64;33.41;37.85;;
69611;Laerm;56817;52.302;4.844;2022-09-09T00:48:43;35.22;33.29;37.47;;
69611;Laerm;56817;52.302;4.844;2022-09-09T00:49:12;34.41;31.54;37.14;;
69611;Laerm;56817;52.302;4.844;2022-09-09T00:51:21;32.58;30.80;34.87;;
69611;Laerm;56817;52.302;4.844;2022-09-09T00:52:27;34.70;32.92;36.57;;
69611;Laerm;56817;52.302;4.844;2022-09-09T00:52:44;34.53;32.42;37.08;;
69611;Laerm;56817;52.302;4.844;2022-09-09T00:53:32;34.25;32.27;36.10;;
69611;Laerm;56817;52.302;4.844;2022-09-09T00:53:36;33.73;31.88;35.95;;
69611;Laerm;56817;52.302;4.844;2022-09-09T00:54:36;34.98;32.31;37.69;;
69611;Laerm;56817;52.302;4.844;2022-09-09T00:54:57;33.91;32.13;36.38;;
69611;Laerm;56817;52.302;4.844;2022-09-09T00:55:16;33.51;31.58;35.57;;
69611;Laerm;56817;52.302;4.844;2022-09-09T00:55:39;34.52;32.57;36.72;;
69611;Laerm;56817;52.302;4.844;2022-09-09T00:56:18;34.29;32.43;36.16;;
69611;Laerm;56817;52.302;4.844;2022-09-09T00:56:35;33.82;32.30;44.38;;
69611;Laerm;56817;52.302;4.844;2022-09-09T00:56:52;33.67;31.85;36.16;;
69611;Laerm;56817;52.302;4.844;2022-09-09T00:57:10;33.70;31.46;35.90;;
69611;Laerm;56817;52.302;4.844;2022-09-09T00:57:26;33.22;31.39;35.55;;
69611;Laerm;56817;52.302;4.844;2022-09-09T00:57:38;33.90;31.88;36.20;;
69611;Laerm;56817;52.302;4.844;2022-09-09T00:57:50;33.79;32.20;35.79;;
69611;Laerm;56817;52.302;4.844;2022-09-09T00:58:01;33.26;31.74;35.03;;
69611;Laerm;56817;52.302;4.844;2022-09-09T00:58:12;33.55;32.03;35.41;;
69611;Laerm;56817;52.302;4.844;2022-09-09T00:58:22;33.67;32.10;34.93;;
69611;Laerm;56817;52.302;4.844;2022-09-09T00:58:32;35.50;32.96;37.48;;
69611;Laerm;56817;52.302;4.844;2022-09-09T00:58:43;35.60;33.19;37.91;;
69611;Laerm;56817;52.302;4.844;2022-09-09T00:59:04;34.76;32.93;36.48;;
69611;Laerm;56817;52.302;4.844;2022-09-09T00:59:54;34.44;32.25;38.84;;
69611;Laerm;56817;52.302;4.844;2022-09-09T01:00:29;35.33;33.18;37.71;;
69611;Laerm;56817;52.302;4.844;2022-09-09T01:00:42;33.86;32.16;37.56;;
69611;Laerm;56817;52.302;4.844;2022-09-09T01:00:57;33.63;31.72;35.45;;
69611;Laerm;56817;52.302;4.844;2022-09-09T01:01:13;34.86;33.04;36.63;;
69611;Laerm;56817;52.302;4.844;2022-09-09T01:01:23;33.93;31.92;35.71;;
69611;Laerm;56817;52.302;4.844;2022-09-09T01:01:33;34.64;32.53;36.95;;
69611;Laerm;56817;52.302;4.844;2022-09-09T01:01:45;34.10;32.42;36.34;;
69611;Laerm;56817;52.302;4.844;2022-09-09T01:01:55;33.80;32.30;35.72;;
69611;Laerm;56817;52.302;4.844;2022-09-09T01:02:13;34.05;32.38;35.73;;
69611;Laerm;56817;52.302;4.844;2022-09-09T01:02:36;34.88;32.69;37.34;;
69611;Laerm;56817;52.302;4.844;2022-09-09T01:03:07;42.82;33.07;57.19;;
69611;Laerm;56817;52.302;4.844;2022-09-09T01:03:53;34.97;32.42;40.40;;
69611;Laerm;56817;52.302;4.844;2022-09-09T01:04:04;35.06;32.35;38.61;;
69611;Laerm;56817;52.302;4.844;2022-09-09T01:04:22;36.42;32.23;53.66;;
69611;Laerm;56817;52.302;4.844;2022-09-09T01:04:35;34.03;32.29;36.86;;
69611;Laerm;56817;52.302;4.844;2022-09-09T01:04:46;34.44;32.31;36.52;;
69611;Laerm;56817;52.302;4.844;2022-09-09T01:05:15;34.04;32.53;36.19;;
69611;Laerm;56817;52.302;4.844;2022-09-09T01:05:59;36.06;32.74;38.57;;
69611;Laerm;56817;52.302;4.844;2022-09-09T01:06:22;36.10;32.61;38.87;;
69611;Laerm;56817;52.302;4.844;2022-09-09T01:06:38;34.67;31.99;38.11;;
69611;Laerm;56817;52.302;4.844;2022-09-09T01:06:50;33.65;32.03;36.40;;
69611;Laerm;56817;52.302;4.844;2022-09-09T01:07:07;34.45;32.15;36.34;;
69611;Laerm;56817;52.302;4.844;2022-09-09T01:07:22;33.96;31.92;37.18;;
69611;Laerm;56817;52.302;4.844;2022-09-09T01:07:33;32.45;30.90;33.60;;
69611;Laerm;56817;52.302;4.844;2022-09-09T01:07:44;32.97;31.10;35.19;;
69611;Laerm;56817;52.302;4.844;2022-09-09T01:07:57;33.28;31.35;35.37;;
69611;Laerm;56817;52.302;4.844;2022-09-09T01:08:58;34.30;31.19;38.72;;
69611;Laerm;56817;52.302;4.844;2022-09-09T01:09:19;33.92;31.32;46.04;;
69611;Laerm;56817;52.302;4.844;2022-09-09T01:09:38;33.76;31.32;36.91;;
69611;Laerm;56817;52.302;4.844;2022-09-09T01:09:55;34.58;31.76;36.83;;
69611;Laerm;56817;52.302;4.844;2022-09-09T01:10:15;34.96;32.84;37.38;;
69611;Laerm;56817;52.302;4.844;2022-09-09T01:10:56;34.05;32.09;36.85;;
69611;Laerm;56817;52.302;4.844;2022-09-09T01:11:10;33.84;32.32;35.96;;
69611;Laerm;56817;52.302;4.844;2022-09-09T01:11:31;34.26;32.12;36.81;;
69611;Laerm;56817;52.302;4.844;2022-09-09T01:12:28;36.79;33.01;42.96;;
69611;Laerm;56817;52.302;4.844;2022-09-09T01:12:43;35.06;32.91;37.18;;
69611;Laerm;56817;52.302;4.844;2022-09-09T01:12:53;34.54;32.57;37.02;;
69611;Laerm;56817;52.302;4.844;2022-09-09T01:13:08;34.32;32.44;36.87;;
69611;Laerm;56817;52.302;4.844;2022-09-09T01:13:29;33.93;32.20;36.16;;
69611;Laerm;56817;52.302;4.844;2022-09-09T01:13:40;34.01;32.19;36.66;;
69611;Laerm;56817;52.302;4.844;2022-09-09T01:13:53;34.32;32.44;36.01;;
69611;Laerm;56817;52.302;4.844;2022-09-09T01:14:19;33.96;32.13;35.81;;
69611;Laerm;56817;52.302;4.844;2022-09-09T01:14:58;35.80;33.58;38.42;;
69611;Laerm;56817;52.302;4.844;2022-09-09T01:15:22;34.86;32.65;37.55;;
69611;Laerm;56817;52.302;4.844;2022-09-09T01:15:34;35.42;32.47;38.54;;
69611;Laerm;56817;52.302;4.844;2022-09-09T01:15:45;36.14;33.86;38.94;;
69611;Laerm;56817;52.302;4.844;2022-09-09T01:15:59;36.81;34.23;41.64;;
69611;Laerm;56817;52.302;4.844;2022-09-09T01:16:10;36.50;33.90;39.18;;
69611;Laerm;56817;52.302;4.844;2022-09-09T01:16:21;35.45;33.57;36.95;;
69611;Laerm;56817;52.302;4.844;2022-09-09T01:16:32;36.22;33.29;39.36;;
69611;Laerm;56817;52.302;4.844;2022-09-09T01:16:42;35.98;33.92;38.19;;
69611;Laerm;56817;52.302;4.844;2022-09-09T01:17:26;35.08;32.76;38.05;;
69611;Laerm;56817;52.302;4.844;2022-09-09T01:18:10;34.91;33.23;37.14;;
69611;Laerm;56817;52.302;4.844;2022-09-09T01:18:23;35.39;33.29;37.61;;
69611;Laerm;56817;52.302;4.844;2022-09-09T01:18:37;34.88;32.73;38.10;;
69611;Laerm;56817;52.302;4.844;2022-09-09T01:18:51;35.04;33.02;37.51;;
69611;Laerm;56817;52.302;4.844;2022-09-09T01:19:03;36.05;33.42;38.43;;
69611;Laerm;56817;52.302;4.844;2022-09-09T01:19:22;36.01;33.37;40.93;;
69611;Laerm;56817;52.302;4.844;2022-09-09T01:20:15;35.02;32.40;40.31;;
69611;Laerm;56817;52.302;4.844;2022-09-09T01:20:30;35.18;33.01;39.03;;
69611;Laerm;56817;52.302;4.844;2022-09-09T01:20:45;35.90;33.99;38.66;;
69611;Laerm;56817;52.302;4.844;2022-09-09T01:21:02;36.25;33.75;39.44;;
69611;Laerm;56817;52.302;4.844;2022-09-09T01:21:17;35.31;32.39;38.79;;
69611;Laerm;56817;52.302;4.844;2022-09-09T01:21:40;34.43;32.30;39.26;;
69611;Laerm;56817;52.302;4.844;2022-09-09T01:21:56;34.93;32.46;39.84;;
69611;Laerm;56817;52.302;4.844;2022-09-09T01:22:26;36.44;34.28;39.33;;
69611;Laerm;56817;52.302;4.844;2022-09-09T01:22:44;37.32;34.43;42.28;;
69611;Laerm;56817;52.302;4.844;2022-09-09T01:23:37;35.49;32.93;38.67;;
69611;Laerm;56817;52.302;4.844;2022-09-09T01:24:27;35.15;33.33;36.93;;
69611;Laerm;56817;52.302;4.844;2022-09-09T01:25:56;34.47;32.20;36.71;;
69611;Laerm;56817;52.302;4.844;2022-09-09T01:26:15;36.04;32.88;40.12;;
69611;Laerm;56817;52.302;4.844;2022-09-09T01:26:34;36.41;33.55;39.84;;
69611;Laerm;56817;52.302;4.844;2022-09-09T01:26:46;35.03;32.49;38.10;;
69611;Laerm;56817;52.302;4.844;2022-09-09T01:26:56;35.29;32.79;39.14;;
69611;Laerm;56817;52.302;4.844;2022-09-09T01:27:09;34.87;32.95;36.77;;
69611;Laerm;56817;52.302;4.844;2022-09-09T01:27:20;34.42;31.86;37.07;;
69611;Laerm;56817;52.302;4.844;2022-09-09T01:27:31;35.21;32.86;38.32;;
69611;Laerm;56817;52.302;4.844;2022-09-09T01:27:42;36.80;34.44;39.94;;
69611;Laerm;56817;52.302;4.844;2022-09-09T01:27:54;36.83;33.65;40.61;;
69611;Laerm;56817;52.302;4.844;2022-09-09T01:28:08;35.03;32.40;46.12;;
69611;Laerm;56817;52.302;4.844;2022-09-09T01:28:21;34.63;32.67;37.90;;
69611;Laerm;56817;52.302;4.844;2022-09-09T01:28:33;35.71;32.99;39.21;;
69611;Laerm;56817;52.302;4.844;2022-09-09T01:28:46;36.31;34.02;39.63;;
69611;Laerm;56817;52.302;4.844;2022-09-09T01:28:57;36.71;34.28;41.06;;
69611;Laerm;56817;52.302;4.844;2022-09-09T01:29:17;35.45;33.53;37.61;;
69611;Laerm;56817;52.302;4.844;2022-09-09T01:29:28;36.02;33.95;40.98;;
69611;Laerm;56817;52.302;4.844;2022-09-09T01:29:38;35.79;33.73;38.28;;
69611;Laerm;56817;52.302;4.844;2022-09-09T01:29:49;36.47;34.19;38.66;;
69611;Laerm;56817;52.302;4.844;2022-09-09T01:29:59;37.61;34.90;41.38;;
69611;Laerm;56817;52.302;4.844;2022-09-09T01:30:13;38.78;35.04;42.13;;
69611;Laerm;56817;52.302;4.844;2022-09-09T01:30:25;39.26;35.75;44.08;;
69611;Laerm;56817;52.302;4.844;2022-09-09T01:30:37;38.40;35.65;42.26;;
69611;Laerm;56817;52.302;4.844;2022-09-09T01:30:48;36.63;34.44;39.21;;
69611;Laerm;56817;52.302;4.844;2022-09-09T01:30:59;38.27;35.91;41.27;;
69611;Laerm;56817;52.302;4.844;2022-09-09T01:31:11;38.82;35.09;42.87;;
69611;Laerm;56817;52.302;4.844;2022-09-09T01:31:28;36.39;34.00;40.15;;
69611;Laerm;56817;52.302;4.844;2022-09-09T01:31:41;35.51;32.85;38.12;;
69611;Laerm;56817;52.302;4.844;2022-09-09T01:31:59;36.56;34.67;39.38;;
69611;Laerm;56817;52.302;4.844;2022-09-09T01:32:46;37.30;33.95;40.47;;
69611;Laerm;56817;52.302;4.844;2022-09-09T01:32:57;35.42;33.46;38.33;;
69611;Laerm;56817;52.302;4.844;2022-09-09T01:33:13;35.26;33.13;38.04;;
69611;Laerm;56817;52.302;4.844;2022-09-09T01:33:24;35.64;33.83;37.75;;
69611;Laerm;56817;52.302;4.844;2022-09-09T01:33:35;35.46;33.45;37.89;;
69611;Laerm;56817;52.302;4.844;2022-09-09T01:33:45;36.68;34.17;38.80;;
69611;Laerm;56817;52.302;4.844;2022-09-09T01:33:55;36.55;34.32;38.79;;
69611;Laerm;56817;52.302;4.844;2022-09-09T01:34:09;35.72;33.72;38.22;;
69611;Laerm;56817;52.302;4.844;2022-09-09T01:34:20;36.84;34.80;38.93;;
69611;Laerm;56817;52.302;4.844;2022-09-09T01:34:35;36.74;34.40;43.39;;
69611;Laerm;56817;52.302;4.844;2022-09-09T01:34:46;37.75;34.62;41.10;;
69611;Laerm;56817;52.302;4.844;2022-09-09T01:34:56;37.10;34.47;40.57;;
69611;Laerm;56817;52.302;4.844;2022-09-09T01:35:08;38.05;35.20;41.26;;
69611;Laerm;56817;52.302;4.844;2022-09-09T01:35:28;38.28;34.94;41.16;;
69611;Laerm;56817;52.302;4.844;2022-09-09T01:35:55;36.72;34.28;40.16;;
69611;Laerm;56817;52.302;4.844;2022-09-09T01:36:29;38.90;35.64;43.27;;
69611;Laerm;56817;52.302;4.844;2022-09-09T01:36:40;38.56;34.67;42.90;;
69611;Laerm;56817;52.302;4.844;2022-09-09T01:36:56;37.34;34.36;41.37;;
69611;Laerm;56817;52.302;4.844;2022-09-09T01:37:08;40.73;36.11;45.38;;
69611;Laerm;56817;52.302;4.844;2022-09-09T01:37:20;39.34;36.17;43.49;;
69611;Laerm;56817;52.302;4.844;2022-09-09T01:37:30;40.24;35.71;45.09;;
69611;Laerm;56817;52.302;4.844;2022-09-09T01:37:41;38.09;34.84;42.86;;
69611;Laerm;56817;52.302;4.844;2022-09-09T01:37:51;39.01;35.49;43.05;;
69611;Laerm;56817;52.302;4.844;2022-09-09T01:38:02;40.68;37.27;45.56;;
69611;Laerm;56817;52.302;4.844;2022-09-09T01:38:12;39.84;36.13;45.94;;
69611;Laerm;56817;52.302;4.844;2022-09-09T01:38:24;40.00;36.67;45.61;;
69611;Laerm;56817;52.302;4.844;2022-09-09T01:38:34;40.39;36.10;45.67;;
69611;Laerm;56817;52.302;4.844;2022-09-09T01:38:46;43.28;36.64;49.52;;
69611;Laerm;56817;52.302;4.844;2022-09-09T01:38:56;41.92;37.77;47.44;;
69611;Laerm;56817;52.302;4.844;2022-09-09T01:39:06;48.61;39.04;58.31;;
69611;Laerm;56817;52.302;4.844;2022-09-09T01:39:17;52.87;47.48;59.20;;
69611;Laerm;56817;52.302;4.844;2022-09-09T01:39:27;47.26;42.64;50.57;;
69611;Laerm;56817;52.302;4.844;2022-09-09T01:39:38;43.57;36.76;50.56;;
69611;Laerm;56817;52.302;4.844;2022-09-09T01:39:48;41.55;38.55;44.87;;
69611;Laerm;56817;52.302;4.844;2022-09-09T01:39:59;41.91;38.11;46.68;;
69611;Laerm;56817;52.302;4.844;2022-09-09T01:40:09;40.83;38.16;44.71;;
69611;Laerm;56817;52.302;4.844;2022-09-09T01:40:20;40.06;36.36;43.58;;
69611;Laerm;56817;52.302;4.844;2022-09-09T01:40:30;38.05;35.86;40.57;;
69611;Laerm;56817;52.302;4.844;2022-09-09T01:40:40;38.17;36.30;40.12;;
69611;Laerm;56817;52.302;4.844;2022-09-09T01:40:51;38.78;36.70;41.20;;
69611;Laerm;56817;52.302;4.844;2022-09-09T01:41:04;38.80;35.87;42.35;;
69611;Laerm;56817;52.302;4.844;2022-09-09T01:41:14;38.91;36.07;40.90;;
69611;Laerm;56817;52.302;4.844;2022-09-09T01:41:25;39.36;36.84;42.39;;
69611;Laerm;56817;52.302;4.844;2022-09-09T01:41:35;40.29;35.43;43.89;;
69611;Laerm;56817;52.302;4.844;2022-09-09T01:41:45;38.09;34.32;44.28;;
69611;Laerm;56817;52.302;4.844;2022-09-09T01:41:56;43.23;36.27;51.65;;
69611;Laerm;56817;52.302;4.844;2022-09-09T01:42:07;47.10;37.15;55.92;;
69611;Laerm;56817;52.302;4.844;2022-09-09T01:42:18;47.86;36.62;59.06;;
69611;Laerm;56817;52.302;4.844;2022-09-09T01:42:29;41.13;36.02;49.36;;
69611;Laerm;56817;52.302;4.844;2022-09-09T01:42:39;37.90;35.29;41.88;;
69611;Laerm;56817;52.302;4.844;2022-09-09T01:42:49;38.96;35.51;44.62;;
69611;Laerm;56817;52.302;4.844;2022-09-09T01:43:00;38.33;35.13;42.03;;
69611;Laerm;56817;52.302;4.844;2022-09-09T01:43:10;38.79;35.27;44.51;;
69611;Laerm;56817;52.302;4.844;2022-09-09T01:43:21;36.65;34.70;39.41;;
69611;Laerm;56817;52.302;4.844;2022-09-09T01:43:32;37.38;34.31;40.86;;
69611;Laerm;56817;52.302;4.844;2022-09-09T01:43:42;35.86;33.91;38.11;;
69611;Laerm;56817;52.302;4.844;2022-09-09T01:43:53;36.21;34.43;39.00;;
69611;Laerm;56817;52.302;4.844;2022-09-09T01:44:05;37.42;35.35;39.61;;
69611;Laerm;56817;52.302;4.844;2022-09-09T01:44:16;36.49;34.38;39.40;;
69611;Laerm;56817;52.302;4.844;2022-09-09T01:44:28;35.84;33.92;38.23;;
69611;Laerm;56817;52.302;4.844;2022-09-09T01:44:39;37.60;35.21;41.20;;
69611;Laerm;56817;52.302;4.844;2022-09-09T01:44:49;41.64;36.02;47.49;;
69611;Laerm;56817;52.302;4.844;2022-09-09T01:45:00;36.90;33.78;42.84;;
69611;Laerm;56817;52.302;4.844;2022-09-09T01:45:10;34.52;32.99;36.34;;
69611;Laerm;56817;52.302;4.844;2022-09-09T01:45:21;35.04;32.90;37.34;;
69611;Laerm;56817;52.302;4.844;2022-09-09T01:45:32;35.78;33.58;39.06;;
69611;Laerm;56817;52.302;4.844;2022-09-09T01:45:42;36.81;34.24;40.29;;
69611;Laerm;56817;52.302;4.844;2022-09-09T01:45:54;35.23;33.20;38.04;;
69611;Laerm;56817;52.302;4.844;2022-09-09T01:46:05;35.56;33.36;37.76;;
69611;Laerm;56817;52.302;4.844;2022-09-09T01:46:16;35.07;33.04;37.43;;
69611;Laerm;56817;52.302;4.844;2022-09-09T01:46:26;34.90;33.08;36.94;;
69611;Laerm;56817;52.302;4.844;2022-09-09T01:46:38;35.04;32.64;37.23;;
69611;Laerm;56817;52.302;4.844;2022-09-09T01:46:48;35.96;34.05;37.99;;
69611;Laerm;56817;52.302;4.844;2022-09-09T01:46:58;36.23;33.34;40.10;;